Time;durP1;ratioP1;P1;durP2;ratioP2;P2;SDS_P1;SDS_P2;PMS_P1;PMS_P2;Temp;Humidity;BMP_temperature;BMP_pressure;BME280_temperature;BME280_humidity;BME280_pressure;Samples;Min_cycle;Max_cycle;Signal;HPM_P1;HPM_P2
2023/03/25 00:02:00;;;;;;;6.88;2.25;;;9.80;99.90;;;;;;5079620;28;20517;-36
2023/03/25 00:04:26;;;;;;;7.28;2.55;;;9.80;99.90;;;;;;5081578;28;20114;-36
2023/03/25 00:06:55;;;;;;;7.10;2.20;;;9.80;99.90;;;;;;5079850;28;20051;-36
2023/03/25 00:09:22;;;;;;;6.25;2.80;;;9.80;99.90;;;;;;5078762;28;20036;-36
2023/03/25 00:11:50;;;;;;;8.23;2.78;;;9.80;99.90;;;;;;5079456;28;20528;-35
2023/03/25 00:14:16;;;;;;;6.60;2.40;;;9.80;99.90;;;;;;5077879;28;20054;-36
2023/03/25 00:16:47;;;;;;;4.72;2.60;;;9.70;99.90;;;;;;5071130;28;20401;-36
2023/03/25 00:19:17;;;;;;;4.75;2.42;;;9.70;99.90;;;;;;5076565;28;20046;-36
2023/03/25 00:21:43;;;;;;;6.38;2.50;;;9.70;99.90;;;;;;5068369;28;20037;-36
2023/03/25 00:24:16;;;;;;;5.93;2.70;;;9.70;99.90;;;;;;5078046;28;20508;-36
2023/03/25 00:26:43;;;;;;;5.68;2.80;;;9.70;99.90;;;;;;5078435;28;20330;-36
2023/03/25 00:29:09;;;;;;;4.80;2.72;;;9.70;99.90;;;;;;5074078;28;20039;-36
2023/03/25 00:31:35;;;;;;;6.80;3.47;;;9.70;99.90;;;;;;5082001;28;20044;-36
2023/03/25 00:34:00;;;;;;;7.10;3.17;;;9.70;99.90;;;;;;5070858;28;20036;-36
2023/03/25 00:36:26;;;;;;;6.97;3.47;;;9.70;99.90;;;;;;5070744;28;20051;-36
2023/03/25 00:38:52;;;;;;;6.60;3.75;;;9.60;99.90;;;;;;5071173;28;20406;-36
2023/03/25 00:41:24;;;;;;;6.32;3.58;;;9.60;99.90;;;;;;5056344;28;20039;-36
2023/03/25 00:44:00;;;;;;;8.00;4.40;;;9.60;99.90;;;;;;5078485;28;20397;-36
2023/03/25 00:46:28;;;;;;;6.72;4.35;;;9.60;99.90;;;;;;5080808;28;20484;-36
2023/03/25 00:48:55;;;;;;;6.38;4.60;;;9.60;99.90;;;;;;5072975;28;20039;-36
2023/03/25 00:51:22;;;;;;;8.80;4.30;;;9.60;99.90;;;;;;5081918;28;20051;-36
2023/03/25 00:53:59;;;;;;;7.63;4.30;;;9.60;99.90;;;;;;5053223;28;21177;-36
2023/03/25 00:56:24;;;;;;;8.88;5.13;;;9.60;99.90;;;;;;5077829;28;20043;-36
2023/03/25 00:58:51;;;;;;;8.30;5.18;;;9.50;99.90;;;;;;5072805;28;20028;-36
2023/03/25 01:01:22;;;;;;;9.32;4.80;;;9.60;99.90;;;;;;5076405;28;20542;-35
2023/03/25 01:03:56;;;;;;;8.15;4.68;;;9.50;99.90;;;;;;5075261;28;20047;-36
2023/03/25 01:06:27;;;;;;;6.47;4.78;;;9.50;99.90;;;;;;5070583;28;20033;-36
2023/03/25 01:08:58;;;;;;;8.90;5.07;;;9.50;99.90;;;;;;5064824;28;20119;-36
2023/03/25 01:11:29;;;;;;;6.97;4.45;;;9.40;99.90;;;;;;5076416;28;20386;-36
2023/03/25 01:13:55;;;;;;;5.82;4.38;;;9.40;99.90;;;;;;5075307;28;20032;-36
2023/03/25 01:16:22;;;;;;;6.00;3.63;;;9.40;99.90;;;;;;5073950;28;20036;-36
2023/03/25 01:18:48;;;;;;;7.43;4.10;;;9.40;99.90;;;;;;5076714;28;21337;-37
2023/03/25 01:21:14;;;;;;;8.73;4.00;;;9.40;99.90;;;;;;5069848;28;20025;-36
2023/03/25 01:23:40;;;;;;;9.07;3.95;;;9.40;99.90;;;;;;5079912;28;20090;-36
2023/03/25 01:26:06;;;;;;;11.25;4.45;;;9.40;99.90;;;;;;5075972;28;20040;-36
2023/03/25 01:28:32;;;;;;;7.60;3.70;;;9.40;99.90;;;;;;5075910;28;20044;-36
2023/03/25 01:31:07;;;;;;;7.50;3.78;;;9.40;99.90;;;;;;5084311;28;20086;-36
2023/03/25 01:33:33;;;;;;;8.95;3.75;;;9.40;99.90;;;;;;5067079;28;20557;-36
2023/03/25 01:36:00;;;;;;;8.75;3.25;;;9.40;99.90;;;;;;5073571;28;20562;-36
2023/03/25 01:38:27;;;;;;;8.05;3.60;;;9.40;99.90;;;;;;5074496;28;20123;-36
2023/03/25 01:40:53;;;;;;;8.32;3.45;;;9.40;99.90;;;;;;5065001;28;20036;-36
2023/03/25 01:43:20;;;;;;;7.78;3.40;;;9.40;99.90;;;;;;5080444;28;20032;-36
2023/03/25 01:45:46;;;;;;;9.00;3.15;;;9.40;99.90;;;;;;5080177;28;20103;-35
2023/03/25 01:48:21;;;;;;;9.57;3.20;;;9.40;99.90;;;;;;5074122;28;20040;-36
2023/03/25 01:50:57;;;;;;;8.63;3.65;;;9.40;99.90;;;;;;5079950;28;20047;-36
2023/03/25 01:53:25;;;;;;;7.53;3.33;;;9.30;99.90;;;;;;5081157;28;20102;-35
2023/03/25 01:55:52;;;;;;;10.60;3.67;;;9.20;99.90;;;;;;5078223;28;20107;-35
2023/03/25 01:58:19;;;;;;;10.10;3.80;;;9.10;99.90;;;;;;5071198;28;20067;-36
2023/03/25 02:00:47;;;;;;;9.85;3.28;;;9.00;99.90;;;;;;5078706;28;20039;-36
2023/03/25 02:03:15;;;;;;;11.48;3.60;;;9.00;99.90;;;;;;5083466;28;20056;-36
2023/03/25 02:05:45;;;;;;;12.70;3.40;;;9.00;99.90;;;;;;5090202;28;20070;-36
2023/03/25 02:08:14;;;;;;;11.23;3.28;;;8.90;99.90;;;;;;5078364;28;20128;-36
2023/03/25 02:10:43;;;;;;;9.23;3.22;;;8.90;99.90;;;;;;5078855;28;20173;-36
2023/03/25 02:13:09;;;;;;;8.13;3.00;;;8.90;99.90;;;;;;5079024;28;20043;-36
2023/03/25 02:16:00;;;;;;;9.43;2.80;;;8.80;99.90;;;;;;5083646;28;20622;-36
2023/03/25 02:18:38;;;;;;;9.57;2.47;;;8.90;99.90;;;;;;5082235;28;20055;-36
2023/03/25 02:21:22;;;;;;;9.68;2.65;;;8.70;99.90;;;;;;5074274;28;20482;-36
2023/03/25 02:23:47;;;;;;;6.20;2.85;;;8.70;99.90;;;;;;5078256;28;20048;-36
2023/03/25 02:27:12;;;;;;;11.68;3.47;;;8.60;99.90;;;;;;5077361;28;20048;-36
2023/03/25 02:29:57;;;;;;;12.65;2.90;;;8.60;99.90;;;;;;5075524;28;20029;-36
2023/03/25 02:33:01;;;;;;;8.05;3.20;;;8.60;99.90;;;;;;5084089;28;20048;-36
2023/03/25 02:35:54;;;;;;;9.90;3.20;;;8.60;99.90;;;;;;5078733;28;20043;-36
2023/03/25 02:38:53;;;;;;;11.93;4.13;;;8.50;99.90;;;;;;5071105;28;20548;-36
2023/03/25 02:41:27;;;;;;;16.63;3.78;;;8.50;99.90;;;;;;5076023;28;20120;-36
2023/03/25 02:44:03;;;;;;;14.60;3.45;;;8.50;99.90;;;;;;5070161;28;20116;-36
2023/03/25 02:46:30;;;;;;;9.95;3.20;;;8.50;99.90;;;;;;5081679;28;20036;-36
2023/03/25 02:49:05;;;;;;;10.35;3.38;;;8.50;99.90;;;;;;5073749;28;20530;-36
2023/03/25 02:51:41;;;;;;;12.80;3.80;;;8.50;99.90;;;;;;5071004;28;20039;-36
2023/03/25 02:54:11;;;;;;;12.00;3.40;;;8.50;99.90;;;;;;5079918;28;20043;-36
2023/03/25 02:56:40;;;;;;;15.32;3.42;;;8.50;99.90;;;;;;5068623;28;20040;-36
2023/03/25 02:59:07;;;;;;;15.35;3.60;;;8.60;99.90;;;;;;5079715;28;20113;-36
2023/03/25 03:01:35;;;;;;;12.55;3.17;;;8.60;99.90;;;;;;5077168;28;20028;-37
2023/03/25 03:04:01;;;;;;;11.35;3.33;;;8.50;99.90;;;;;;5074897;28;20048;-36
2023/03/25 03:06:27;;;;;;;12.93;3.60;;;8.50;99.90;;;;;;5082737;28;20116;-36
2023/03/25 03:09:11;;;;;;;9.82;2.97;;;8.50;99.90;;;;;;5076796;28;20040;-35
2023/03/25 03:12:04;;;;;;;11.50;3.55;;;8.50;99.90;;;;;;5079790;28;20036;-35
2023/03/25 03:14:45;;;;;;;15.50;3.25;;;8.50;99.90;;;;;;5065780;28;20383;-36
2023/03/25 03:17:16;;;;;;;10.15;4.15;;;8.50;99.90;;;;;;5075366;28;20517;-36
2023/03/25 03:19:50;;;;;;;10.68;3.42;;;8.50;99.90;;;;;;5075800;28;20036;-35
2023/03/25 03:22:37;;;;;;;13.70;3.00;;;8.50;99.90;;;;;;5076413;28;20370;-36
2023/03/25 03:25:09;;;;;;;16.02;3.80;;;8.50;99.90;;;;;;5079314;28;20063;-36
2023/03/25 03:27:50;;;;;;;11.30;3.13;;;8.50;99.90;;;;;;5080943;28;20047;-36
2023/03/25 03:30:31;;;;;;;9.73;3.03;;;8.50;99.90;;;;;;5083355;28;20113;-36
2023/03/25 03:33:24;;;;;;;14.40;3.50;;;8.50;99.90;;;;;;5073211;28;20040;-36
2023/03/25 03:36:16;;;;;;;8.37;2.90;;;8.50;99.90;;;;;;5083206;28;20029;-36
2023/03/25 03:38:52;;;;;;;15.23;3.72;;;8.60;99.90;;;;;;5080071;28;20044;-36
2023/03/25 03:41:22;;;;;;;10.05;3.40;;;8.50;99.90;;;;;;5079427;28;20032;-36
2023/03/25 03:44:01;;;;;;;18.77;4.30;;;8.50;99.90;;;;;;5073803;28;20033;-36
2023/03/25 03:46:42;;;;;;;10.95;2.92;;;8.50;99.90;;;;;;5079308;28;20037;-36
2023/03/25 03:49:16;;;;;;;10.32;4.10;;;8.50;99.90;;;;;;5073704;28;20466;-36
2023/03/25 03:52:07;;;;;;;10.10;3.40;;;8.60;99.90;;;;;;5078514;28;20037;-36
2023/03/25 03:54:41;;;;;;;10.68;3.05;;;8.50;99.90;;;;;;5071360;28;20040;-36
2023/03/25 03:57:20;;;;;;;;;;;8.50;99.90;;;;;;5069521;28;20086;-36
2023/03/25 04:00:06;;;;;;;11.85;4.38;;;8.50;99.90;;;;;;5102513;28;20070;-36
2023/03/25 04:02:46;;;;;;;7.97;3.28;;;8.50;99.90;;;;;;5079008;28;20044;-36
2023/03/25 04:05:15;;;;;;;13.35;3.60;;;8.50;99.90;;;;;;5079694;28;20199;-36
2023/03/25 04:07:53;;;;;;;7.30;2.80;;;8.50;99.90;;;;;;5073622;28;20037;-36
2023/03/25 04:10:53;;;;;;;8.57;3.33;;;8.40;99.90;;;;;;5078575;28;20551;-36
2023/03/25 04:13:21;;;;;;;10.65;3.60;;;8.40;99.90;;;;;;5065805;28;20167;-37
2023/03/25 04:15:48;;;;;;;13.35;3.85;;;8.40;99.90;;;;;;5073392;28;20068;-37
2023/03/25 04:18:13;;;;;;;9.38;3.25;;;8.40;99.90;;;;;;5076652;28;20125;-37
2023/03/25 04:20:43;;;;;;;12.75;3.20;;;8.40;99.90;;;;;;5079387;28;20067;-37
2023/03/25 04:23:14;;;;;;;12.30;3.33;;;8.40;99.90;;;;;;5077047;28;20039;-37
2023/03/25 04:25:48;;;;;;;10.60;3.67;;;8.40;99.90;;;;;;5078664;28;20051;-37
2023/03/25 04:28:16;;;;;;;;;;;8.40;99.90;;;;;;5079263;28;20173;-37
2023/03/25 04:30:44;;;;;;;10.45;3.53;;;8.40;99.90;;;;;;5080313;28;20006;-37
2023/03/25 04:33:11;;;;;;;13.38;3.50;;;8.30;99.90;;;;;;5067850;28;20036;-37
2023/03/25 04:35:37;;;;;;;11.18;3.88;;;8.40;99.90;;;;;;5080185;28;20039;-37
2023/03/25 04:38:04;;;;;;;12.20;4.40;;;8.40;99.90;;;;;;5073699;28;20098;-37
2023/03/25 04:40:30;;;;;;;16.35;4.32;;;8.40;99.90;;;;;;5085143;28;20071;-38
2023/03/25 04:42:56;;;;;;;12.90;3.97;;;8.40;99.90;;;;;;5079134;28;20045;-37
2023/03/25 04:45:24;;;;;;;13.80;4.22;;;8.40;99.90;;;;;;5064698;28;20041;-37
2023/03/25 04:47:53;;;;;;;12.43;4.38;;;8.40;99.90;;;;;;5079827;28;20098;-37
2023/03/25 04:50:29;;;;;;;13.27;4.55;;;8.40;99.90;;;;;;5075613;28;20064;-37
2023/03/25 04:53:01;;;;;;;10.93;4.28;;;8.40;99.90;;;;;;5067149;28;20113;-37
2023/03/25 04:55:28;;;;;;;11.30;4.22;;;8.40;99.90;;;;;;5074760;28;20119;-37
2023/03/25 04:57:54;;;;;;;16.63;4.57;;;8.40;99.90;;;;;;5073969;28;20131;-37
2023/03/25 05:00:23;;;;;;;14.93;4.72;;;8.40;99.90;;;;;;5063971;28;20044;-37
2023/03/25 05:02:52;;;;;;;10.75;4.30;;;8.30;99.90;;;;;;5075998;28;20040;-37
2023/03/25 05:05:21;;;;;;;11.30;4.50;;;8.30;99.90;;;;;;5079433;28;20497;-37
2023/03/25 05:07:48;;;;;;;7.40;3.97;;;8.30;99.90;;;;;;5074602;28;20537;-37
2023/03/25 05:10:15;;;;;;;10.57;5.43;;;8.40;99.90;;;;;;5083023;28;20040;-37
2023/03/25 05:12:41;;;;;;;8.90;4.60;;;8.40;99.90;;;;;;5074264;28;20099;-37
2023/03/25 05:15:08;;;;;;;12.27;4.63;;;8.30;99.90;;;;;;5073371;28;20036;-37
2023/03/25 05:17:34;;;;;;;16.48;5.53;;;8.30;99.90;;;;;;5065631;28;20075;-37
2023/03/25 05:20:00;;;;;;;11.57;4.80;;;8.30;99.90;;;;;;5081400;28;20454;-37
2023/03/25 05:22:26;;;;;;;11.88;5.65;;;8.30;99.90;;;;;;5073181;28;20421;-37
2023/03/25 05:24:52;;;;;;;11.63;5.28;;;8.30;99.90;;;;;;5066773;28;20040;-37
2023/03/25 05:27:21;;;;;;;11.80;5.47;;;8.30;99.90;;;;;;5076275;28;20040;-37
2023/03/25 05:29:46;;;;;;;12.52;5.57;;;8.20;99.90;;;;;;5046442;28;20131;-37
2023/03/25 05:32:16;;;;;;;15.63;6.32;;;8.30;99.90;;;;;;5082495;28;20123;-37
2023/03/25 05:34:47;;;;;;;13.32;6.40;;;8.20;99.90;;;;;;5076592;28;20041;-37
2023/03/25 05:37:13;;;;;;;12.27;6.63;;;8.30;99.90;;;;;;5073279;28;20067;-37
2023/03/25 05:39:39;;;;;;;13.82;6.45;;;8.20;99.90;;;;;;5078946;28;20086;-38
2023/03/25 05:42:05;;;;;;;19.50;8.10;;;8.20;99.90;;;;;;5075935;28;20405;-37
2023/03/25 05:44:31;;;;;;;14.70;7.10;;;8.20;99.90;;;;;;5071288;28;20033;-38
2023/03/25 05:47:00;;;;;;;14.05;7.97;;;8.10;99.90;;;;;;5075646;28;20044;-38
2023/03/25 05:49:27;;;;;;;18.27;7.70;;;8.10;99.90;;;;;;5077872;28;20446;-38
2023/03/25 05:51:54;;;;;;;12.32;6.25;;;7.90;99.90;;;;;;5062614;28;20100;-38
2023/03/25 05:54:23;;;;;;;5.97;2.47;;;8.00;99.90;;;;;;5069852;28;20587;-38
2023/03/25 05:56:52;;;;;;;5.68;2.72;;;7.90;99.90;;;;;;5043398;28;20055;-38
2023/03/25 05:59:19;;;;;;;8.75;3.35;;;7.80;99.90;;;;;;5065117;28;20040;-38
2023/03/25 06:01:45;;;;;;;9.45;3.80;;;7.80;99.90;;;;;;5082303;28;20046;-38
2023/03/25 06:04:12;;;;;;;10.02;4.10;;;7.70;99.90;;;;;;5070418;28;20435;-39
2023/03/25 06:06:38;;;;;;;8.93;3.97;;;7.80;99.90;;;;;;5085453;28;20036;-38
2023/03/25 06:09:05;;;;;;;10.55;5.03;;;7.70;99.90;;;;;;5065986;28;20044;-38
2023/03/25 06:11:36;;;;;;;12.13;6.07;;;7.80;99.90;;;;;;5077317;28;20046;-38
2023/03/25 06:14:03;;;;;;;11.80;6.80;;;7.80;99.90;;;;;;5066043;28;20524;-38
2023/03/25 06:16:30;;;;;;;15.73;5.90;;;7.80;99.90;;;;;;5072747;28;20037;-38
2023/03/25 06:18:58;;;;;;;17.00;5.85;;;7.90;99.90;;;;;;5065958;28;20044;-38
2023/03/25 06:21:31;;;;;;;9.80;3.97;;;7.90;99.90;;;;;;5066000;28;20490;-38
2023/03/25 06:23:59;;;;;;;14.57;3.75;;;8.00;99.90;;;;;;5069503;28;20040;-38
2023/03/25 06:26:25;;;;;;;13.85;4.30;;;7.90;99.90;;;;;;5077116;28;20413;-38
2023/03/25 06:28:51;;;;;;;11.98;3.72;;;8.00;99.90;;;;;;5077735;28;20085;-38
2023/03/25 06:31:25;;;;;;;12.88;3.90;;;8.10;99.90;;;;;;5058117;28;20041;-38
2023/03/25 06:33:51;;;;;;;10.85;3.88;;;7.90;99.90;;;;;;5082795;28;20049;-38
2023/03/25 06:36:19;;;;;;;8.63;3.20;;;7.90;99.90;;;;;;5046047;28;20037;-38
2023/03/25 06:38:49;;;;;;;8.77;3.13;;;7.90;99.90;;;;;;5073810;28;20070;-38
2023/03/25 06:41:19;;;;;;;7.10;3.33;;;7.90;99.90;;;;;;5073934;28;20079;-38
2023/03/25 06:43:48;;;;;;;8.57;3.17;;;7.90;99.90;;;;;;5061679;28;20448;-38
2023/03/25 06:46:14;;;;;;;10.40;3.42;;;7.80;99.90;;;;;;5067273;28;20043;-38
2023/03/25 06:48:40;;;;;;;12.02;3.50;;;7.80;99.90;;;;;;5070078;28;20040;-38
2023/03/25 06:51:06;;;;;;;6.80;3.10;;;7.90;99.90;;;;;;5056355;28;20094;-38
2023/03/25 06:53:31;;;;;;;7.10;3.42;;;7.90;99.90;;;;;;5070518;28;20045;-38
2023/03/25 06:55:58;;;;;;;11.88;3.72;;;7.80;99.90;;;;;;5067517;28;20046;-38
2023/03/25 06:58:24;;;;;;;12.75;3.50;;;7.80;99.90;;;;;;5072350;28;20116;-38
2023/03/25 07:00:55;;;;;;;8.80;3.58;;;7.90;99.90;;;;;;5058480;28;20055;-38
2023/03/25 07:03:21;;;;;;;12.48;3.58;;;8.00;99.90;;;;;;5067537;28;20434;-37
2023/03/25 07:05:48;;;;;;;13.18;4.30;;;8.00;99.90;;;;;;5069237;28;20037;-38
2023/03/25 07:08:14;;;;;;;15.35;4.38;;;8.20;99.90;;;;;;5075225;28;20043;-38
2023/03/25 07:10:40;;;;;;;11.52;3.97;;;8.20;99.90;;;;;;5074981;28;20037;-37
2023/03/25 07:13:07;;;;;;;12.38;4.50;;;8.30;99.90;;;;;;5065424;28;20505;-38
2023/03/25 07:15:33;;;;;;;16.05;4.20;;;8.40;99.90;;;;;;5067502;28;20063;-38
2023/03/25 07:17:58;;;;;;;14.93;4.63;;;8.50;99.90;;;;;;5075252;28;20526;-38
2023/03/25 07:20:24;;;;;;;11.63;4.40;;;8.50;99.90;;;;;;5069316;28;20501;-38
2023/03/25 07:22:50;;;;;;;17.95;4.85;;;8.60;99.90;;;;;;5074936;28;20077;-37
2023/03/25 07:25:15;;;;;;;13.43;4.60;;;8.80;99.90;;;;;;5070578;28;20032;-37
2023/03/25 07:27:41;;;;;;;14.77;4.18;;;8.80;99.90;;;;;;5065620;28;20040;-37
2023/03/25 07:30:07;;;;;;;13.68;4.90;;;8.80;99.90;;;;;;5066249;28;20032;-38
2023/03/25 07:32:33;;;;;;;18.67;5.28;;;8.90;99.90;;;;;;5065892;28;20638;-38
2023/03/25 07:34:59;;;;;;;17.73;5.43;;;9.00;99.90;;;;;;5069481;28;20055;-38
2023/03/25 07:37:24;;;;;;;15.90;5.03;;;9.00;99.90;;;;;;5076724;28;20041;-38
2023/03/25 07:39:50;;;;;;;12.45;4.50;;;9.00;99.90;;;;;;5043299;28;20032;-37
2023/03/25 07:42:16;;;;;;;13.52;4.50;;;9.00;99.90;;;;;;5052170;28;20059;-38
2023/03/25 07:44:41;;;;;;;17.42;4.40;;;8.90;99.90;;;;;;5066424;28;20070;-37
2023/03/25 07:47:07;;;;;;;11.05;4.10;;;8.90;99.90;;;;;;5063050;28;20063;-37
2023/03/25 07:49:33;;;;;;;20.83;5.82;;;8.80;99.90;;;;;;5068061;28;20039;-37
2023/03/25 07:51:59;;;;;;;10.80;3.80;;;8.80;99.90;;;;;;5061485;28;20111;-38
2023/03/25 07:54:24;;;;;;;11.75;4.40;;;8.80;99.90;;;;;;5064140;28;20083;-38
2023/03/25 07:56:51;;;;;;;14.20;4.05;;;8.80;99.90;;;;;;5065620;28;20075;-38
2023/03/25 07:59:17;;;;;;;13.65;4.55;;;8.80;99.90;;;;;;5074709;28;20407;-37
2023/03/25 08:01:43;;;;;;;18.70;4.63;;;8.70;99.90;;;;;;5062152;28;20033;-38
2023/03/25 08:04:09;;;;;;;10.20;3.28;;;8.80;99.90;;;;;;5077319;28;20572;-38
2023/03/25 08:06:35;;;;;;;16.92;4.60;;;8.60;99.90;;;;;;5078862;28;20075;-37
2023/03/25 08:09:00;;;;;;;17.63;4.40;;;8.50;99.90;;;;;;5058550;28;20044;-37
2023/03/25 08:11:26;;;;;;;19.65;4.95;;;8.40;99.90;;;;;;5077626;28;20032;-37
2023/03/25 08:13:52;;;;;;;13.40;3.83;;;8.70;99.90;;;;;;5066281;28;20047;-38
2023/03/25 08:16:18;;;;;;;17.63;4.38;;;8.70;99.90;;;;;;5056136;28;20067;-38
2023/03/25 08:18:51;;;;;;;16.45;4.10;;;8.80;99.90;;;;;;5057350;28;20037;-36
2023/03/25 08:21:23;;;;;;;14.55;3.97;;;8.90;99.90;;;;;;5059856;28;20116;-38
2023/03/25 08:24:01;;;;;;;17.25;4.53;;;9.00;99.90;;;;;;5079114;28;20043;-37
2023/03/25 08:26:28;;;;;;;14.45;3.40;;;9.30;99.90;;;;;;5060461;28;20025;-38
2023/03/25 08:28:56;;;;;;;15.80;3.45;;;9.40;99.90;;;;;;5072787;28;20409;-38
2023/03/25 08:31:23;;;;;;;14.43;3.53;;;9.50;99.90;;;;;;5073397;28;20068;-37
2023/03/25 08:33:49;;;;;;;15.10;4.15;;;9.40;99.90;;;;;;5080595;28;20043;-37
2023/03/25 08:36:18;;;;;;;14.27;3.88;;;9.40;99.90;;;;;;5082400;28;20040;-37
2023/03/25 08:38:50;;;;;;;19.15;3.83;;;9.40;99.90;;;;;;5080382;28;20045;-37
2023/03/25 08:41:16;;;;;;;13.70;3.50;;;9.30;99.90;;;;;;5051140;28;20039;-37
2023/03/25 08:43:42;;;;;;;15.93;3.83;;;9.30;99.90;;;;;;5077210;28;20036;-35
2023/03/25 08:46:09;;;;;;;13.52;3.78;;;9.20;99.90;;;;;;5074452;28;20127;-35
2023/03/25 08:48:35;;;;;;;16.52;4.10;;;9.10;99.90;;;;;;5091099;28;20127;-36
2023/03/25 08:51:01;;;;;;;15.25;3.60;;;9.20;99.90;;;;;;5091012;28;20040;-36
2023/03/25 08:53:27;;;;;;;14.13;3.50;;;9.10;99.90;;;;;;5091393;28;20078;-35
2023/03/25 08:55:55;;;;;;;12.52;3.45;;;9.00;99.90;;;;;;5073990;28;20474;-35
2023/03/25 08:58:21;;;;;;;15.52;3.67;;;9.00;99.90;;;;;;5091085;28;20040;-36
2023/03/25 09:00:48;;;;;;;12.98;3.35;;;9.00;99.90;;;;;;5091186;28;20032;-36
2023/03/25 09:03:15;;;;;;;16.52;3.88;;;9.00;99.90;;;;;;5091030;28;20038;-35
2023/03/25 09:05:40;;;;;;;18.77;4.15;;;9.00;99.90;;;;;;5090722;28;20065;-35
2023/03/25 09:08:08;;;;;;;14.73;4.10;;;9.20;99.90;;;;;;5090873;28;20496;-35
2023/03/25 09:10:34;;;;;;;18.45;4.10;;;9.40;99.90;;;;;;5091126;28;20481;-35
2023/03/25 09:13:00;;;;;;;15.45;3.72;;;9.50;99.90;;;;;;5090712;28;20043;-35
2023/03/25 09:15:25;;;;;;;16.33;4.70;;;9.50;99.90;;;;;;5090926;28;20040;-35
2023/03/25 09:17:51;;;;;;;18.15;5.10;;;9.50;99.90;;;;;;5090973;28;20036;-36
2023/03/25 09:20:17;;;;;;;17.45;4.47;;;9.50;99.90;;;;;;5090934;28;20040;-35
2023/03/25 09:22:43;;;;;;;11.32;4.32;;;9.40;99.90;;;;;;5090673;28;20036;-35
2023/03/25 09:25:10;;;;;;;13.43;3.83;;;9.40;99.90;;;;;;5090625;28;20432;-36
2023/03/25 09:27:36;;;;;;;15.73;4.18;;;9.30;99.90;;;;;;5090183;28;20066;-35
2023/03/25 09:30:03;;;;;;;14.70;4.13;;;9.40;99.90;;;;;;5090517;28;20055;-36
2023/03/25 09:32:29;;;;;;;20.02;5.70;;;9.70;99.90;;;;;;5090846;28;20119;-36
2023/03/25 09:34:55;;;;;;;14.20;4.15;;;10.10;99.90;;;;;;5090482;28;20032;-36
2023/03/25 09:37:21;;;;;;;15.02;4.72;;;10.50;99.90;;;;;;5090843;28;20036;-35
2023/03/25 09:39:47;;;;;;;12.70;4.13;;;10.80;99.90;;;;;;5090438;28;20044;-36
2023/03/25 09:42:47;;;;;;;14.18;3.80;;;10.90;99.90;;;;;;5090638;28;20036;-35
2023/03/25 09:45:35;;;;;;;16.02;3.83;;;10.80;99.90;;;;;;5090749;28;20040;-35
2023/03/25 09:48:24;;;;;;;13.50;3.35;;;10.60;99.90;;;;;;5090349;28;20224;-36
2023/03/25 09:50:50;;;;;;;17.23;3.63;;;10.30;99.90;;;;;;5082264;28;20078;-35
2023/03/25 09:53:49;;;;;;;12.93;3.17;;;10.20;99.90;;;;;;5090431;28;20044;-35
2023/03/25 09:56:27;;;;;;;13.93;3.55;;;10.00;99.90;;;;;;5090291;28;20044;-35
2023/03/25 09:59:08;;;;;;;13.68;3.08;;;9.90;99.90;;;;;;5090385;28;20040;-36
2023/03/25 10:01:37;;;;;;;15.40;3.72;;;10.00;99.90;;;;;;5090659;28;20055;-36
2023/03/25 10:04:21;;;;;;;15.20;3.72;;;10.00;99.90;;;;;;5090176;28;20047;-36
2023/03/25 10:06:52;;;;;;;;;;;10.10;99.90;;;;;;5091030;28;20043;-36
2023/03/25 10:09:53;;;;;;;11.30;3.05;;;10.20;99.90;;;;;;5090312;28;20203;-36
2023/03/25 10:12:51;;;;;;;11.80;3.30;;;10.20;99.90;;;;;;5067087;28;20447;-35
2023/03/25 10:15:25;;;;;;;13.75;2.83;;;10.10;99.90;;;;;;5081968;28;20048;-35
2023/03/25 10:18:04;;;;;;;9.40;2.97;;;10.00;99.90;;;;;;5090800;28;20551;-35
2023/03/25 10:20:56;;;;;;;12.30;3.10;;;10.00;99.90;;;;;;5094088;28;20040;-36
2023/03/25 10:23:57;;;;;;;8.57;2.33;;;9.90;99.90;;;;;;5094010;28;20075;-35
2023/03/25 10:26:29;;;;;;;8.15;2.72;;;9.70;99.90;;;;;;5093622;28;20074;-35
2023/03/25 10:29:09;;;;;;;13.65;3.05;;;9.50;99.90;;;;;;5094191;28;20397;-36
2023/03/25 10:31:41;;;;;;;10.77;2.70;;;9.40;99.90;;;;;;5094214;28;20040;-36
2023/03/25 10:34:17;;;;;;;15.35;3.60;;;9.40;99.90;;;;;;5094313;28;20039;-36
2023/03/25 10:36:53;;;;;;;14.45;3.78;;;9.50;99.90;;;;;;5093777;28;20050;-36
2023/03/25 10:39:21;;;;;;;19.52;3.80;;;9.50;99.90;;;;;;5093874;28;20036;-36
2023/03/25 10:41:56;;;;;;;21.05;3.83;;;9.60;99.90;;;;;;5093874;28;20034;-36
2023/03/25 10:44:25;;;;;;;13.50;3.65;;;9.50;99.90;;;;;;5093901;28;20114;-36
2023/03/25 10:46:57;;;;;;;11.55;3.40;;;9.40;99.90;;;;;;5093517;28;20039;-36
2023/03/25 10:49:27;;;;;;;14.05;3.50;;;9.50;99.90;;;;;;5093528;28;20055;-35
2023/03/25 10:51:55;;;;;;;16.70;4.07;;;9.50;99.90;;;;;;5093974;28;20059;-35
2023/03/25 10:54:28;;;;;;;14.07;3.80;;;9.60;99.90;;;;;;5094141;28;20040;-36
2023/03/25 10:56:57;;;;;;;12.40;3.80;;;9.80;99.90;;;;;;5074931;28;20138;-35
2023/03/25 10:59:45;;;;;;;14.93;3.40;;;10.00;99.90;;;;;;5073786;28;20044;-36
2023/03/25 11:02:32;;;;;;;15.57;3.17;;;10.10;99.90;;;;;;5053799;28;20037;-35
2023/03/25 11:05:03;;;;;;;16.30;3.53;;;10.30;99.90;;;;;;5053576;28;20538;-35
2023/03/25 11:07:36;;;;;;;12.00;2.88;;;10.30;99.90;;;;;;5053448;28;20122;-36
2023/03/25 11:10:13;;;;;;;8.82;3.03;;;10.20;99.90;;;;;;5072141;28;20080;-35
2023/03/25 11:12:46;;;;;;;15.57;3.33;;;10.10;99.90;;;;;;5053235;28;20076;-35
2023/03/25 11:15:19;;;;;;;;;;;10.10;99.90;;;;;;5069122;28;20045;-35
2023/03/25 11:17:46;;;;;;;14.20;3.13;;;10.00;99.90;;;;;;5051522;28;19917;-35
2023/03/25 11:20:24;;;;;;;11.57;2.80;;;10.00;99.90;;;;;;5069387;28;20099;-35
2023/03/25 11:22:52;;;;;;;11.80;2.53;;;10.20;99.90;;;;;;5069486;28;20051;-35
2023/03/25 11:25:30;;;;;;;14.43;2.58;;;10.30;99.90;;;;;;5069126;28;20037;-35
2023/03/25 11:28:00;;;;;;;15.55;2.92;;;10.50;99.90;;;;;;5072285;28;20043;-35
2023/03/25 11:30:26;;;;;;;11.50;2.88;;;10.80;99.90;;;;;;5072733;28;20040;-36
2023/03/25 11:33:11;;;;;;;14.52;3.70;;;11.00;99.90;;;;;;5070575;28;20041;-35
2023/03/25 11:35:42;;;;;;;7.78;2.60;;;11.40;99.90;;;;;;5052565;28;20047;-36
2023/03/25 11:38:31;;;;;;;14.48;2.90;;;11.60;99.90;;;;;;5056557;28;20133;-35
2023/03/25 11:40:57;;;;;;;11.85;3.45;;;11.60;99.90;;;;;;5072523;28;20480;-35
2023/03/25 11:43:28;;;;;;;15.27;3.00;;;11.60;99.90;;;;;;5072093;28;20551;-35
2023/03/25 11:45:53;;;;;;;12.50;2.75;;;11.70;99.90;;;;;;5071712;28;20040;-35
2023/03/25 11:48:21;;;;;;;12.00;2.47;;;11.70;99.90;;;;;;5072434;28;20044;-35
2023/03/25 11:50:58;;;;;;;10.50;2.53;;;11.80;99.90;;;;;;5072131;28;20044;-35
2023/03/25 11:53:27;;;;;;;12.75;2.80;;;11.60;99.90;;;;;;5067210;28;20125;-35
2023/03/25 11:56:03;;;;;;;11.93;2.55;;;11.50;99.90;;;;;;5052194;28;20682;-35
2023/03/25 11:58:34;;;;;;;15.60;2.78;;;11.50;99.90;;;;;;5052023;28;20037;-35
2023/03/25 12:01:22;;;;;;;8.75;2.45;;;11.40;99.90;;;;;;5052375;28;20029;-35
2023/03/25 12:03:48;;;;;;;8.93;3.08;;;11.40;99.90;;;;;;5052337;28;20036;-35
2023/03/25 12:06:20;;;;;;;13.55;2.45;;;11.40;99.90;;;;;;5063699;28;20517;-35
2023/03/25 12:08:55;;;;;;;11.27;2.83;;;11.40;99.90;;;;;;5070541;28;20552;-35
2023/03/25 12:11:34;;;;;;;12.60;3.05;;;11.50;99.90;;;;;;5071401;28;20036;-35
2023/03/25 12:14:15;;;;;;;9.77;2.85;;;11.90;99.90;;;;;;5071532;28;20039;-35
2023/03/25 12:17:20;;;;;;;12.13;2.90;;;12.50;99.90;;;;;;5071446;28;20045;-34
2023/03/25 12:19:56;;;;;;;13.05;2.55;;;12.90;99.90;;;;;;5051414;28;20044;-35
2023/03/25 12:22:47;;;;;;;12.93;2.42;;;12.90;99.90;;;;;;5051605;28;20059;-35
2023/03/25 12:25:28;;;;;;;11.18;2.78;;;12.60;99.90;;;;;;5051401;28;20041;-34
2023/03/25 12:28:05;;;;;;;9.73;2.22;;;12.50;99.90;;;;;;5051975;28;20040;-35
2023/03/25 12:30:40;;;;;;;13.73;3.33;;;12.30;99.90;;;;;;5071445;28;20080;-34
2023/03/25 12:33:29;;;;;;;11.75;3.13;;;12.20;99.90;;;;;;5069059;28;20044;-34
2023/03/25 12:36:14;;;;;;;14.75;3.17;;;12.10;99.90;;;;;;5069318;28;20051;-33
2023/03/25 12:39:04;;;;;;;7.05;2.30;;;12.00;99.90;;;;;;5049417;28;20048;-35
2023/03/25 12:42:05;;;;;;;14.20;2.83;;;11.70;99.90;;;;;;5064332;28;20055;-34
2023/03/25 12:45:18;;;;;;;8.25;2.60;;;11.80;99.90;;;;;;5071640;28;20036;-35
2023/03/25 12:48:14;;;;;;;13.05;2.92;;;11.80;99.90;;;;;;5071610;28;20043;-35
2023/03/25 12:51:20;;;;;;;7.15;2.72;;;11.50;99.90;;;;;;5066735;28;20058;-35
2023/03/25 12:53:45;;;;;;;9.68;2.30;;;11.50;99.90;;;;;;5064022;28;20055;-37
2023/03/25 12:56:20;;;;;;;8.63;2.53;;;11.60;99.90;;;;;;5064574;28;20037;-38
2023/03/25 12:59:14;;;;;;;12.35;2.80;;;11.60;99.90;;;;;;5063093;28;20059;-38
2023/03/25 13:01:53;;;;;;;12.35;3.08;;;11.80;99.90;;;;;;5056384;28;20320;-37
2023/03/25 13:04:37;;;;;;;10.73;2.42;;;12.50;99.90;;;;;;5056930;28;20033;-37
2023/03/25 13:07:11;;;;;;;13.02;2.30;;;12.50;99.90;;;;;;5060323;28;20406;-37
2023/03/25 13:10:14;;;;;;;9.23;2.65;;;12.60;99.90;;;;;;5052864;28;20087;-37
2023/03/25 13:12:50;;;;;;;13.82;3.17;;;12.80;99.90;;;;;;5053690;28;20045;-37
2023/03/25 13:15:42;;;;;;;12.13;2.40;;;13.30;99.90;;;;;;5060499;28;20036;-37